sensor_id;sensor_type;location;lat;lon;timestamp;P1;durP1;ratioP1;P2;durP2;ratioP2
21905;SDS011;11117;48.644;9.006;2024-01-16T00:02:22;14.00;;;5.63;;
21905;SDS011;11117;48.644;9.006;2024-01-16T00:04:48;16.83;;;6.60;;
21905;SDS011;11117;48.644;9.006;2024-01-16T00:07:13;10.00;;;3.80;;
21905;SDS011;11117;48.644;9.006;2024-01-16T00:09:39;11.97;;;5.97;;
21905;SDS011;11117;48.644;9.006;2024-01-16T00:12:05;12.57;;;5.83;;
21905;SDS011;11117;48.644;9.006;2024-01-16T00:14:34;13.27;;;6.10;;
21905;SDS011;11117;48.644;9.006;2024-01-16T00:17:00;13.07;;;5.80;;
21905;SDS011;11117;48.644;9.006;2024-01-16T00:19:26;11.10;;;5.43;;
21905;SDS011;11117;48.644;9.006;2024-01-16T00:21:51;13.83;;;5.03;;
21905;SDS011;11117;48.644;9.006;2024-01-16T00:24:17;9.73;;;5.17;;
21905;SDS011;11117;48.644;9.006;2024-01-16T00:26:42;12.50;;;5.60;;
21905;SDS011;11117;48.644;9.006;2024-01-16T00:29:08;13.33;;;5.50;;
21905;SDS011;11117;48.644;9.006;2024-01-16T00:31:34;12.43;;;5.70;;
21905;SDS011;11117;48.644;9.006;2024-01-16T00:33:59;14.40;;;5.93;;
21905;SDS011;11117;48.644;9.006;2024-01-16T00:36:25;10.70;;;5.40;;
21905;SDS011;11117;48.644;9.006;2024-01-16T00:38:51;15.40;;;5.67;;
21905;SDS011;11117;48.644;9.006;2024-01-16T00:41:17;10.93;;;5.57;;
21905;SDS011;11117;48.644;9.006;2024-01-16T00:43:42;11.73;;;5.30;;
21905;SDS011;11117;48.644;9.006;2024-01-16T00:46:09;12.00;;;5.77;;
21905;SDS011;11117;48.644;9.006;2024-01-16T00:48:34;10.90;;;5.03;;
21905;SDS011;11117;48.644;9.006;2024-01-16T00:51:00;11.37;;;5.70;;
21905;SDS011;11117;48.644;9.006;2024-01-16T00:53:26;11.30;;;5.23;;
21905;SDS011;11117;48.644;9.006;2024-01-16T00:55:52;10.97;;;5.20;;
21905;SDS011;11117;48.644;9.006;2024-01-16T00:58:18;10.83;;;5.53;;
21905;SDS011;11117;48.644;9.006;2024-01-16T01:00:43;11.10;;;5.97;;
21905;SDS011;11117;48.644;9.006;2024-01-16T01:03:09;10.73;;;5.20;;
21905;SDS011;11117;48.644;9.006;2024-01-16T01:05:34;12.00;;;5.17;;
21905;SDS011;11117;48.644;9.006;2024-01-16T01:08:00;12.80;;;5.50;;
21905;SDS011;11117;48.644;9.006;2024-01-16T01:10:25;11.90;;;5.33;;
21905;SDS011;11117;48.644;9.006;2024-01-16T01:12:51;14.37;;;5.50;;
21905;SDS011;11117;48.644;9.006;2024-01-16T01:15:17;13.17;;;5.80;;
21905;SDS011;11117;48.644;9.006;2024-01-16T01:17:42;11.23;;;5.07;;
21905;SDS011;11117;48.644;9.006;2024-01-16T01:20:08;12.43;;;5.33;;
21905;SDS011;11117;48.644;9.006;2024-01-16T01:22:34;9.43;;;5.50;;
21905;SDS011;11117;48.644;9.006;2024-01-16T01:25:00;10.57;;;4.07;;
21905;SDS011;11117;48.644;9.006;2024-01-16T01:27:26;16.50;;;5.80;;
21905;SDS011;11117;48.644;9.006;2024-01-16T01:29:51;8.10;;;4.07;;
21905;SDS011;11117;48.644;9.006;2024-01-16T01:32:17;11.43;;;5.43;;
21905;SDS011;11117;48.644;9.006;2024-01-16T01:34:43;11.90;;;6.07;;
21905;SDS011;11117;48.644;9.006;2024-01-16T01:37:08;12.33;;;6.63;;
21905;SDS011;11117;48.644;9.006;2024-01-16T01:39:34;11.23;;;5.63;;
21905;SDS011;11117;48.644;9.006;2024-01-16T01:41:59;11.23;;;5.53;;
21905;SDS011;11117;48.644;9.006;2024-01-16T01:44:25;11.53;;;5.90;;
21905;SDS011;11117;48.644;9.006;2024-01-16T01:46:51;11.80;;;5.40;;
21905;SDS011;11117;48.644;9.006;2024-01-16T01:49:19;12.07;;;5.27;;
21905;SDS011;11117;48.644;9.006;2024-01-16T01:51:45;10.73;;;4.93;;
21905;SDS011;11117;48.644;9.006;2024-01-16T01:54:11;11.67;;;5.30;;
21905;SDS011;11117;48.644;9.006;2024-01-16T01:56:37;11.10;;;5.10;;
21905;SDS011;11117;48.644;9.006;2024-01-16T01:59:03;9.20;;;4.33;;
21905;SDS011;11117;48.644;9.006;2024-01-16T02:01:29;10.47;;;4.87;;
21905;SDS011;11117;48.644;9.006;2024-01-16T02:03:58;11.37;;;4.80;;
21905;SDS011;11117;48.644;9.006;2024-01-16T02:06:25;12.97;;;5.40;;
21905;SDS011;11117;48.644;9.006;2024-01-16T02:08:50;10.93;;;5.17;;
21905;SDS011;11117;48.644;9.006;2024-01-16T02:11:16;13.37;;;5.73;;
21905;SDS011;11117;48.644;9.006;2024-01-16T02:13:42;10.07;;;4.80;;
21905;SDS011;11117;48.644;9.006;2024-01-16T02:16:20;10.90;;;5.30;;
21905;SDS011;11117;48.644;9.006;2024-01-16T02:18:47;11.23;;;5.10;;
21905;SDS011;11117;48.644;9.006;2024-01-16T02:21:24;12.10;;;5.30;;
21905;SDS011;11117;48.644;9.006;2024-01-16T02:23:59;12.73;;;6.13;;
21905;SDS011;11117;48.644;9.006;2024-01-16T02:26:25;13.57;;;5.80;;
21905;SDS011;11117;48.644;9.006;2024-01-16T02:28:50;14.67;;;6.10;;
21905;SDS011;11117;48.644;9.006;2024-01-16T02:31:16;13.90;;;6.27;;
21905;SDS011;11117;48.644;9.006;2024-01-16T02:33:41;12.60;;;5.77;;
21905;SDS011;11117;48.644;9.006;2024-01-16T02:36:07;13.40;;;6.07;;
21905;SDS011;11117;48.644;9.006;2024-01-16T02:38:33;12.03;;;5.83;;
21905;SDS011;11117;48.644;9.006;2024-01-16T02:40:58;12.77;;;6.00;;
21905;SDS011;11117;48.644;9.006;2024-01-16T02:43:24;11.70;;;5.50;;
21905;SDS011;11117;48.644;9.006;2024-01-16T02:45:49;10.80;;;5.23;;
21905;SDS011;11117;48.644;9.006;2024-01-16T02:48:16;9.80;;;4.97;;
21905;SDS011;11117;48.644;9.006;2024-01-16T02:50:41;10.83;;;5.23;;
21905;SDS011;11117;48.644;9.006;2024-01-16T02:53:07;11.50;;;5.10;;
21905;SDS011;11117;48.644;9.006;2024-01-16T02:55:33;9.07;;;5.10;;
21905;SDS011;11117;48.644;9.006;2024-01-16T02:57:58;14.50;;;5.60;;
21905;SDS011;11117;48.644;9.006;2024-01-16T03:00:24;11.40;;;5.60;;
21905;SDS011;11117;48.644;9.006;2024-01-16T03:02:49;12.70;;;5.90;;
21905;SDS011;11117;48.644;9.006;2024-01-16T03:05:15;10.00;;;4.97;;
21905;SDS011;11117;48.644;9.006;2024-01-16T03:07:41;12.53;;;5.33;;
21905;SDS011;11117;48.644;9.006;2024-01-16T03:10:06;11.83;;;5.10;;
21905;SDS011;11117;48.644;9.006;2024-01-16T03:12:32;11.53;;;5.27;;
21905;SDS011;11117;48.644;9.006;2024-01-16T03:14:58;10.67;;;5.10;;
21905;SDS011;11117;48.644;9.006;2024-01-16T03:17:25;10.80;;;4.97;;
21905;SDS011;11117;48.644;9.006;2024-01-16T03:19:50;10.93;;;5.00;;
21905;SDS011;11117;48.644;9.006;2024-01-16T03:22:16;10.73;;;5.20;;
21905;SDS011;11117;48.644;9.006;2024-01-16T03:24:42;12.47;;;5.20;;
21905;SDS011;11117;48.644;9.006;2024-01-16T03:27:07;11.23;;;5.10;;
21905;SDS011;11117;48.644;9.006;2024-01-16T03:29:33;13.40;;;5.83;;
21905;SDS011;11117;48.644;9.006;2024-01-16T03:31:58;9.20;;;5.10;;
21905;SDS011;11117;48.644;9.006;2024-01-16T03:34:24;9.50;;;5.20;;
21905;SDS011;11117;48.644;9.006;2024-01-16T03:36:50;11.93;;;5.20;;
21905;SDS011;11117;48.644;9.006;2024-01-16T03:39:16;11.83;;;5.63;;
21905;SDS011;11117;48.644;9.006;2024-01-16T03:41:41;10.43;;;5.07;;
21905;SDS011;11117;48.644;9.006;2024-01-16T03:44:07;12.27;;;5.07;;
21905;SDS011;11117;48.644;9.006;2024-01-16T03:46:32;9.53;;;5.20;;
21905;SDS011;11117;48.644;9.006;2024-01-16T03:48:59;11.93;;;5.07;;
21905;SDS011;11117;48.644;9.006;2024-01-16T03:51:25;9.43;;;4.63;;
21905;SDS011;11117;48.644;9.006;2024-01-16T03:53:50;10.77;;;5.90;;
21905;SDS011;11117;48.644;9.006;2024-01-16T03:56:16;11.47;;;5.73;;
21905;SDS011;11117;48.644;9.006;2024-01-16T03:58:42;12.23;;;4.93;;
21905;SDS011;11117;48.644;9.006;2024-01-16T04:01:08;13.37;;;5.50;;
21905;SDS011;11117;48.644;9.006;2024-01-16T04:03:34;10.57;;;5.30;;
21905;SDS011;11117;48.644;9.006;2024-01-16T04:05:59;11.57;;;5.17;;
21905;SDS011;11117;48.644;9.006;2024-01-16T04:08:25;13.63;;;5.40;;
21905;SDS011;11117;48.644;9.006;2024-01-16T04:10:50;11.57;;;5.57;;
21905;SDS011;11117;48.644;9.006;2024-01-16T04:13:16;12.87;;;5.73;;
21905;SDS011;11117;48.644;9.006;2024-01-16T04:15:41;11.40;;;5.30;;
21905;SDS011;11117;48.644;9.006;2024-01-16T04:18:07;14.43;;;5.57;;
21905;SDS011;11117;48.644;9.006;2024-01-16T04:20:33;13.50;;;5.57;;
21905;SDS011;11117;48.644;9.006;2024-01-16T04:22:58;10.20;;;5.60;;
21905;SDS011;11117;48.644;9.006;2024-01-16T04:25:24;12.10;;;5.70;;
21905;SDS011;11117;48.644;9.006;2024-01-16T04:27:49;10.40;;;5.80;;
21905;SDS011;11117;48.644;9.006;2024-01-16T04:30:15;12.67;;;5.43;;
21905;SDS011;11117;48.644;9.006;2024-01-16T04:32:41;11.17;;;5.17;;
21905;SDS011;11117;48.644;9.006;2024-01-16T04:35:06;11.50;;;5.90;;
21905;SDS011;11117;48.644;9.006;2024-01-16T04:37:32;13.03;;;6.23;;
21905;SDS011;11117;48.644;9.006;2024-01-16T04:39:58;11.93;;;6.73;;
21905;SDS011;11117;48.644;9.006;2024-01-16T04:42:24;13.50;;;5.73;;
21905;SDS011;11117;48.644;9.006;2024-01-16T04:44:50;12.67;;;5.07;;
21905;SDS011;11117;48.644;9.006;2024-01-16T04:47:16;15.67;;;5.87;;
21905;SDS011;11117;48.644;9.006;2024-01-16T04:49:41;11.07;;;5.53;;
21905;SDS011;11117;48.644;9.006;2024-01-16T04:52:07;12.20;;;5.80;;
21905;SDS011;11117;48.644;9.006;2024-01-16T04:54:33;11.30;;;5.60;;
21905;SDS011;11117;48.644;9.006;2024-01-16T04:56:58;11.23;;;5.13;;
21905;SDS011;11117;48.644;9.006;2024-01-16T04:59:24;10.53;;;5.10;;
21905;SDS011;11117;48.644;9.006;2024-01-16T05:01:50;11.63;;;5.33;;
21905;SDS011;11117;48.644;9.006;2024-01-16T05:04:16;11.37;;;5.40;;
21905;SDS011;11117;48.644;9.006;2024-01-16T05:06:41;14.77;;;5.53;;
21905;SDS011;11117;48.644;9.006;2024-01-16T05:09:07;12.20;;;5.40;;
21905;SDS011;11117;48.644;9.006;2024-01-16T05:11:32;12.27;;;4.90;;
21905;SDS011;11117;48.644;9.006;2024-01-16T05:13:58;11.83;;;4.67;;
21905;SDS011;11117;48.644;9.006;2024-01-16T05:16:24;10.13;;;4.60;;
21905;SDS011;11117;48.644;9.006;2024-01-16T05:18:50;9.73;;;4.33;;
21905;SDS011;11117;48.644;9.006;2024-01-16T05:21:16;12.07;;;5.17;;
21905;SDS011;11117;48.644;9.006;2024-01-16T05:23:41;9.67;;;4.60;;
21905;SDS011;11117;48.644;9.006;2024-01-16T05:26:07;107.83;;;8.60;;
21905;SDS011;11117;48.644;9.006;2024-01-16T05:28:32;431.37;;;15.87;;
21905;SDS011;11117;48.644;9.006;2024-01-16T05:30:59;543.10;;;21.57;;
21905;SDS011;11117;48.644;9.006;2024-01-16T05:33:24;289.13;;;20.17;;
21905;SDS011;11117;48.644;9.006;2024-01-16T05:35:50;15.40;;;7.60;;
21905;SDS011;11117;48.644;9.006;2024-01-16T05:38:16;16.57;;;6.93;;
21905;SDS011;11117;48.644;9.006;2024-01-16T05:40:41;18.43;;;9.30;;
21905;SDS011;11117;48.644;9.006;2024-01-16T05:43:07;23.27;;;11.33;;
21905;SDS011;11117;48.644;9.006;2024-01-16T05:45:33;16.00;;;9.50;;
21905;SDS011;11117;48.644;9.006;2024-01-16T05:47:58;16.27;;;7.67;;
21905;SDS011;11117;48.644;9.006;2024-01-16T05:50:24;14.07;;;8.07;;
21905;SDS011;11117;48.644;9.006;2024-01-16T05:52:49;16.83;;;6.53;;
21905;SDS011;11117;48.644;9.006;2024-01-16T05:55:15;11.80;;;6.47;;
21905;SDS011;11117;48.644;9.006;2024-01-16T05:57:41;13.43;;;6.17;;
21905;SDS011;11117;48.644;9.006;2024-01-16T06:00:06;12.60;;;5.87;;
21905;SDS011;11117;48.644;9.006;2024-01-16T06:02:32;11.03;;;4.93;;
21905;SDS011;11117;48.644;9.006;2024-01-16T06:04:58;11.73;;;4.90;;
21905;SDS011;11117;48.644;9.006;2024-01-16T06:07:23;13.97;;;5.10;;
21905;SDS011;11117;48.644;9.006;2024-01-16T06:09:49;10.23;;;4.90;;
21905;SDS011;11117;48.644;9.006;2024-01-16T06:12:14;16.30;;;6.13;;
21905;SDS011;11117;48.644;9.006;2024-01-16T06:14:40;17.67;;;8.37;;
21905;SDS011;11117;48.644;9.006;2024-01-16T06:17:06;25.30;;;11.87;;
21905;SDS011;11117;48.644;9.006;2024-01-16T06:19:31;28.33;;;10.73;;
21905;SDS011;11117;48.644;9.006;2024-01-16T06:21:58;26.87;;;9.67;;
21905;SDS011;11117;48.644;9.006;2024-01-16T06:24:24;15.90;;;7.03;;
21905;SDS011;11117;48.644;9.006;2024-01-16T06:26:49;24.07;;;9.07;;
21905;SDS011;11117;48.644;9.006;2024-01-16T06:29:15;26.27;;;11.40;;
21905;SDS011;11117;48.644;9.006;2024-01-16T06:31:40;16.30;;;7.60;;
21905;SDS011;11117;48.644;9.006;2024-01-16T06:34:06;10.30;;;4.90;;
21905;SDS011;11117;48.644;9.006;2024-01-16T06:36:32;12.17;;;5.90;;
21905;SDS011;11117;48.644;9.006;2024-01-16T06:38:58;8.63;;;4.33;;
21905;SDS011;11117;48.644;9.006;2024-01-16T06:41:24;8.97;;;4.53;;
21905;SDS011;11117;48.644;9.006;2024-01-16T06:43:49;11.00;;;5.67;;
21905;SDS011;11117;48.644;9.006;2024-01-16T06:46:15;11.70;;;5.10;;
21905;SDS011;11117;48.644;9.006;2024-01-16T06:48:41;9.47;;;5.10;;
21905;SDS011;11117;48.644;9.006;2024-01-16T06:51:06;13.97;;;6.90;;
21905;SDS011;11117;48.644;9.006;2024-01-16T06:53:32;14.27;;;5.80;;
21905;SDS011;11117;48.644;9.006;2024-01-16T06:55:57;15.50;;;6.17;;
21905;SDS011;11117;48.644;9.006;2024-01-16T06:58:23;11.63;;;5.27;;
21905;SDS011;11117;48.644;9.006;2024-01-16T07:00:48;14.60;;;6.37;;
21905;SDS011;11117;48.644;9.006;2024-01-16T07:03:14;11.80;;;5.30;;
21905;SDS011;11117;48.644;9.006;2024-01-16T07:05:40;10.07;;;4.87;;
21905;SDS011;11117;48.644;9.006;2024-01-16T07:08:06;15.90;;;6.77;;
21905;SDS011;11117;48.644;9.006;2024-01-16T07:10:32;11.10;;;5.60;;
21905;SDS011;11117;48.644;9.006;2024-01-16T07:12:58;18.50;;;9.20;;
21905;SDS011;11117;48.644;9.006;2024-01-16T07:15:23;12.30;;;6.33;;
21905;SDS011;11117;48.644;9.006;2024-01-16T07:17:49;12.13;;;5.83;;
21905;SDS011;11117;48.644;9.006;2024-01-16T07:20:14;10.47;;;5.33;;
21905;SDS011;11117;48.644;9.006;2024-01-16T07:22:40;12.60;;;5.73;;
21905;SDS011;11117;48.644;9.006;2024-01-16T07:25:06;11.07;;;5.80;;
21905;SDS011;11117;48.644;9.006;2024-01-16T07:27:32;12.30;;;5.80;;
21905;SDS011;11117;48.644;9.006;2024-01-16T07:29:58;16.23;;;8.07;;
21905;SDS011;11117;48.644;9.006;2024-01-16T07:32:23;13.60;;;5.93;;
21905;SDS011;11117;48.644;9.006;2024-01-16T07:34:49;16.87;;;5.23;;
21905;SDS011;11117;48.644;9.006;2024-01-16T07:37:14;11.57;;;6.43;;
21905;SDS011;11117;48.644;9.006;2024-01-16T07:39:40;13.00;;;6.07;;
21905;SDS011;11117;48.644;9.006;2024-01-16T07:42:05;14.70;;;7.07;;
21905;SDS011;11117;48.644;9.006;2024-01-16T07:44:31;12.63;;;6.23;;
21905;SDS011;11117;48.644;9.006;2024-01-16T07:46:56;12.73;;;5.97;;
21905;SDS011;11117;48.644;9.006;2024-01-16T07:49:22;11.63;;;5.70;;
21905;SDS011;11117;48.644;9.006;2024-01-16T07:51:47;12.17;;;5.43;;
21905;SDS011;11117;48.644;9.006;2024-01-16T07:54:13;10.60;;;5.47;;
21905;SDS011;11117;48.644;9.006;2024-01-16T07:56:39;11.97;;;5.53;;
21905;SDS011;11117;48.644;9.006;2024-01-16T07:59:04;10.67;;;5.53;;
21905;SDS011;11117;48.644;9.006;2024-01-16T08:01:30;13.57;;;6.13;;
21905;SDS011;11117;48.644;9.006;2024-01-16T08:03:58;14.53;;;7.27;;
21905;SDS011;11117;48.644;9.006;2024-01-16T08:06:24;14.93;;;6.90;;
21905;SDS011;11117;48.644;9.006;2024-01-16T08:08:50;9.90;;;5.77;;
21905;SDS011;11117;48.644;9.006;2024-01-16T08:11:15;11.77;;;6.17;;
21905;SDS011;11117;48.644;9.006;2024-01-16T08:13:43;14.53;;;7.20;;
21905;SDS011;11117;48.644;9.006;2024-01-16T08:16:08;15.90;;;8.70;;
21905;SDS011;11117;48.644;9.006;2024-01-16T08:18:34;12.63;;;6.50;;
21905;SDS011;11117;48.644;9.006;2024-01-16T08:20:59;15.67;;;8.00;;
21905;SDS011;11117;48.644;9.006;2024-01-16T08:23:25;26.73;;;12.60;;
21905;SDS011;11117;48.644;9.006;2024-01-16T08:25:51;22.60;;;10.90;;
21905;SDS011;11117;48.644;9.006;2024-01-16T08:28:16;26.87;;;13.20;;
21905;SDS011;11117;48.644;9.006;2024-01-16T08:30:42;15.37;;;8.87;;
21905;SDS011;11117;48.644;9.006;2024-01-16T08:33:08;16.27;;;9.70;;
21905;SDS011;11117;48.644;9.006;2024-01-16T08:35:34;10.67;;;6.50;;
21905;SDS011;11117;48.644;9.006;2024-01-16T08:37:59;12.80;;;5.80;;
21905;SDS011;11117;48.644;9.006;2024-01-16T08:40:25;12.80;;;6.50;;
21905;SDS011;11117;48.644;9.006;2024-01-16T08:42:51;18.63;;;8.43;;
21905;SDS011;11117;48.644;9.006;2024-01-16T08:45:17;13.87;;;7.80;;
21905;SDS011;11117;48.644;9.006;2024-01-16T08:47:42;11.20;;;6.53;;
21905;SDS011;11117;48.644;9.006;2024-01-16T08:50:08;9.20;;;5.17;;
21905;SDS011;11117;48.644;9.006;2024-01-16T08:52:33;10.77;;;4.93;;
21905;SDS011;11117;48.644;9.006;2024-01-16T08:54:59;11.80;;;4.77;;
21905;SDS011;11117;48.644;9.006;2024-01-16T08:57:24;18.13;;;4.43;;
21905;SDS011;11117;48.644;9.006;2024-01-16T08:59:50;8.97;;;4.33;;
21905;SDS011;11117;48.644;9.006;2024-01-16T09:02:16;8.83;;;4.30;;
21905;SDS011;11117;48.644;9.006;2024-01-16T09:04:42;9.87;;;4.50;;
21905;SDS011;11117;48.644;9.006;2024-01-16T09:07:07;8.97;;;4.27;;
21905;SDS011;11117;48.644;9.006;2024-01-16T09:09:33;8.30;;;3.83;;
21905;SDS011;11117;48.644;9.006;2024-01-16T09:11:58;8.83;;;4.23;;
21905;SDS011;11117;48.644;9.006;2024-01-16T09:14:24;15.23;;;6.90;;
21905;SDS011;11117;48.644;9.006;2024-01-16T09:16:49;12.40;;;5.37;;
21905;SDS011;11117;48.644;9.006;2024-01-16T09:19:18;12.63;;;6.50;;
21905;SDS011;11117;48.644;9.006;2024-01-16T09:21:43;11.10;;;6.60;;
21905;SDS011;11117;48.644;9.006;2024-01-16T09:24:09;12.63;;;6.00;;
21905;SDS011;11117;48.644;9.006;2024-01-16T09:26:35;8.13;;;5.40;;
21905;SDS011;11117;48.644;9.006;2024-01-16T09:29:00;11.77;;;6.13;;
21905;SDS011;11117;48.644;9.006;2024-01-16T09:31:26;9.20;;;4.73;;
21905;SDS011;11117;48.644;9.006;2024-01-16T09:33:51;9.50;;;5.30;;
21905;SDS011;11117;48.644;9.006;2024-01-16T09:36:17;10.53;;;5.77;;
21905;SDS011;11117;48.644;9.006;2024-01-16T09:38:42;12.57;;;5.23;;
21905;SDS011;11117;48.644;9.006;2024-01-16T09:41:08;9.53;;;4.97;;
21905;SDS011;11117;48.644;9.006;2024-01-16T09:43:34;10.47;;;5.67;;
21905;SDS011;11117;48.644;9.006;2024-01-16T09:46:01;10.97;;;4.77;;
21905;SDS011;11117;48.644;9.006;2024-01-16T09:48:29;8.73;;;4.97;;
21905;SDS011;11117;48.644;9.006;2024-01-16T09:50:55;8.73;;;4.10;;
21905;SDS011;11117;48.644;9.006;2024-01-16T09:53:21;9.70;;;4.10;;
21905;SDS011;11117;48.644;9.006;2024-01-16T09:55:47;6.87;;;3.87;;
21905;SDS011;11117;48.644;9.006;2024-01-16T09:58:15;9.63;;;4.30;;
21905;SDS011;11117;48.644;9.006;2024-01-16T10:00:44;8.10;;;4.00;;
21905;SDS011;11117;48.644;9.006;2024-01-16T10:03:11;9.33;;;3.73;;
21905;SDS011;11117;48.644;9.006;2024-01-16T10:05:39;7.40;;;3.90;;
21905;SDS011;11117;48.644;9.006;2024-01-16T10:08:07;7.93;;;3.93;;
21905;SDS011;11117;48.644;9.006;2024-01-16T10:10:32;9.00;;;3.70;;
21905;SDS011;11117;48.644;9.006;2024-01-16T10:12:58;7.50;;;3.90;;
21905;SDS011;11117;48.644;9.006;2024-01-16T10:15:24;6.33;;;3.23;;
21905;SDS011;11117;48.644;9.006;2024-01-16T10:17:50;6.80;;;3.93;;
21905;SDS011;11117;48.644;9.006;2024-01-16T10:20:16;6.57;;;4.40;;
21905;SDS011;11117;48.644;9.006;2024-01-16T10:22:56;7.60;;;4.13;;
21905;SDS011;11117;48.644;9.006;2024-01-16T10:25:21;9.10;;;4.80;;
21905;SDS011;11117;48.644;9.006;2024-01-16T10:27:47;7.47;;;4.10;;
21905;SDS011;11117;48.644;9.006;2024-01-16T10:30:13;8.20;;;4.03;;
21905;SDS011;11117;48.644;9.006;2024-01-16T10:32:40;9.23;;;4.07;;
21905;SDS011;11117;48.644;9.006;2024-01-16T10:37:44;9.13;;;3.67;;
21905;SDS011;11117;48.644;9.006;2024-01-16T10:40:17;7.83;;;4.17;;
21905;SDS011;11117;48.644;9.006;2024-01-16T10:42:56;6.20;;;3.67;;
21905;SDS011;11117;48.644;9.006;2024-01-16T10:45:29;6.47;;;3.57;;
21905;SDS011;11117;48.644;9.006;2024-01-16T10:48:05;5.43;;;3.57;;
21905;SDS011;11117;48.644;9.006;2024-01-16T10:50:31;6.60;;;3.50;;
21905;SDS011;11117;48.644;9.006;2024-01-16T10:53:04;7.20;;;3.70;;
21905;SDS011;11117;48.644;9.006;2024-01-16T10:55:31;6.43;;;3.70;;
21905;SDS011;11117;48.644;9.006;2024-01-16T10:58:07;7.77;;;3.73;;
21905;SDS011;11117;48.644;9.006;2024-01-16T11:00:37;7.07;;;4.10;;
21905;SDS011;11117;48.644;9.006;2024-01-16T11:03:05;7.50;;;4.83;;
21905;SDS011;11117;48.644;9.006;2024-01-16T11:05:35;6.77;;;3.90;;
21905;SDS011;11117;48.644;9.006;2024-01-16T11:08:01;6.67;;;3.40;;
21905;SDS011;11117;48.644;9.006;2024-01-16T11:10:28;8.07;;;3.57;;
21905;SDS011;11117;48.644;9.006;2024-01-16T11:12:54;9.43;;;3.70;;
21905;SDS011;11117;48.644;9.006;2024-01-16T11:15:24;7.97;;;3.30;;
21905;SDS011;11117;48.644;9.006;2024-01-16T11:17:50;6.87;;;3.63;;
21905;SDS011;11117;48.644;9.006;2024-01-16T11:20:17;9.93;;;4.27;;
21905;SDS011;11117;48.644;9.006;2024-01-16T11:22:43;5.87;;;2.97;;
21905;SDS011;11117;48.644;9.006;2024-01-16T11:25:10;7.17;;;3.53;;
21905;SDS011;11117;48.644;9.006;2024-01-16T11:27:37;8.27;;;3.80;;
21905;SDS011;11117;48.644;9.006;2024-01-16T11:30:05;6.07;;;3.20;;
21905;SDS011;11117;48.644;9.006;2024-01-16T11:32:35;10.67;;;3.90;;
21905;SDS011;11117;48.644;9.006;2024-01-16T11:35:05;6.17;;;3.00;;
21905;SDS011;11117;48.644;9.006;2024-01-16T11:37:35;5.10;;;2.90;;
21905;SDS011;11117;48.644;9.006;2024-01-16T11:42:45;8.63;;;4.30;;
21905;SDS011;11117;48.644;9.006;2024-01-16T11:45:56;5.70;;;3.17;;
21905;SDS011;11117;48.644;9.006;2024-01-16T11:48:09;11.97;;;7.07;;
21905;SDS011;11117;48.644;9.006;2024-01-16T11:50:35;6.47;;;3.83;;
21905;SDS011;11117;48.644;9.006;2024-01-16T11:53:01;5.03;;;2.73;;
21905;SDS011;11117;48.644;9.006;2024-01-16T12:01:21;5.43;;;2.43;;
21905;SDS011;11117;48.644;9.006;2024-01-16T12:03:56;5.93;;;2.67;;
21905;SDS011;11117;48.644;9.006;2024-01-16T12:06:27;6.63;;;2.83;;
21905;SDS011;11117;48.644;9.006;2024-01-16T12:08:54;5.67;;;3.00;;
21905;SDS011;11117;48.644;9.006;2024-01-16T12:11:35;4.23;;;2.80;;
21905;SDS011;11117;48.644;9.006;2024-01-16T12:14:01;7.23;;;2.73;;
21905;SDS011;11117;48.644;9.006;2024-01-16T12:16:27;8.23;;;2.63;;
21905;SDS011;11117;48.644;9.006;2024-01-16T12:19:04;4.63;;;2.87;;
21905;SDS011;11117;48.644;9.006;2024-01-16T12:21:39;5.43;;;2.60;;
21905;SDS011;11117;48.644;9.006;2024-01-16T12:24:05;4.90;;;2.87;;
21905;SDS011;11117;48.644;9.006;2024-01-16T12:26:30;4.20;;;2.60;;
21905;SDS011;11117;48.644;9.006;2024-01-16T12:28:58;9.03;;;3.17;;
21905;SDS011;11117;48.644;9.006;2024-01-16T12:31:24;7.17;;;2.97;;
21905;SDS011;11117;48.644;9.006;2024-01-16T12:33:51;6.23;;;2.97;;
21905;SDS011;11117;48.644;9.006;2024-01-16T12:36:17;5.47;;;3.13;;
21905;SDS011;11117;48.644;9.006;2024-01-16T12:38:42;5.27;;;2.70;;
21905;SDS011;11117;48.644;9.006;2024-01-16T12:41:08;5.57;;;3.00;;
21905;SDS011;11117;48.644;9.006;2024-01-16T12:43:36;7.83;;;3.10;;
21905;SDS011;11117;48.644;9.006;2024-01-16T12:46:02;6.03;;;2.40;;
21905;SDS011;11117;48.644;9.006;2024-01-16T12:48:27;4.10;;;2.40;;
21905;SDS011;11117;48.644;9.006;2024-01-16T12:51:03;4.70;;;2.50;;
21905;SDS011;11117;48.644;9.006;2024-01-16T12:53:29;5.33;;;2.40;;
21905;SDS011;11117;48.644;9.006;2024-01-16T12:55:59;5.80;;;2.60;;
21905;SDS011;11117;48.644;9.006;2024-01-16T12:58:25;4.33;;;2.10;;
21905;SDS011;11117;48.644;9.006;2024-01-16T13:03:48;4.47;;;2.10;;
21905;SDS011;11117;48.644;9.006;2024-01-16T13:06:18;6.10;;;2.17;;
21905;SDS011;11117;48.644;9.006;2024-01-16T13:08:48;3.37;;;1.93;;
21905;SDS011;11117;48.644;9.006;2024-01-16T13:11:14;4.43;;;2.33;;
21905;SDS011;11117;48.644;9.006;2024-01-16T13:13:41;5.40;;;2.20;;
21905;SDS011;11117;48.644;9.006;2024-01-16T13:16:06;4.43;;;2.10;;
21905;SDS011;11117;48.644;9.006;2024-01-16T13:18:32;4.83;;;2.33;;
21905;SDS011;11117;48.644;9.006;2024-01-16T13:20:59;4.70;;;2.27;;
21905;SDS011;11117;48.644;9.006;2024-01-16T13:23:25;4.87;;;2.27;;
21905;SDS011;11117;48.644;9.006;2024-01-16T13:25:52;4.10;;;2.10;;
21905;SDS011;11117;48.644;9.006;2024-01-16T13:28:18;4.47;;;2.10;;
21905;SDS011;11117;48.644;9.006;2024-01-16T13:30:45;3.10;;;2.00;;
21905;SDS011;11117;48.644;9.006;2024-01-16T13:33:11;9.90;;;3.17;;
21905;SDS011;11117;48.644;9.006;2024-01-16T13:35:40;6.37;;;3.20;;
21905;SDS011;11117;48.644;9.006;2024-01-16T13:38:07;5.53;;;2.40;;
21905;SDS011;11117;48.644;9.006;2024-01-16T13:40:34;4.88;;;2.17;;
21905;SDS011;11117;48.644;9.006;2024-01-16T13:43:00;3.93;;;2.43;;
21905;SDS011;11117;48.644;9.006;2024-01-16T13:45:26;3.93;;;2.17;;
21905;SDS011;11117;48.644;9.006;2024-01-16T13:47:52;6.13;;;2.50;;
21905;SDS011;11117;48.644;9.006;2024-01-16T13:50:18;4.70;;;2.20;;
21905;SDS011;11117;48.644;9.006;2024-01-16T13:52:44;4.87;;;2.73;;
21905;SDS011;11117;48.644;9.006;2024-01-16T13:55:09;5.50;;;2.37;;
21905;SDS011;11117;48.644;9.006;2024-01-16T13:57:35;3.87;;;2.30;;
21905;SDS011;11117;48.644;9.006;2024-01-16T14:00:02;5.60;;;2.50;;
21905;SDS011;11117;48.644;9.006;2024-01-16T14:02:35;5.13;;;2.63;;
21905;SDS011;11117;48.644;9.006;2024-01-16T14:05:00;4.77;;;2.70;;
21905;SDS011;11117;48.644;9.006;2024-01-16T14:07:26;5.47;;;2.70;;
21905;SDS011;11117;48.644;9.006;2024-01-16T14:09:51;5.73;;;2.60;;
21905;SDS011;11117;48.644;9.006;2024-01-16T14:12:17;4.63;;;2.70;;
21905;SDS011;11117;48.644;9.006;2024-01-16T14:14:43;9.23;;;3.23;;
21905;SDS011;11117;48.644;9.006;2024-01-16T14:17:09;6.73;;;3.67;;
21905;SDS011;11117;48.644;9.006;2024-01-16T14:19:35;7.13;;;3.37;;
21905;SDS011;11117;48.644;9.006;2024-01-16T14:22:02;8.57;;;3.97;;
21905;SDS011;11117;48.644;9.006;2024-01-16T14:24:27;6.53;;;3.70;;
21905;SDS011;11117;48.644;9.006;2024-01-16T14:26:53;8.50;;;3.90;;
21905;SDS011;11117;48.644;9.006;2024-01-16T14:29:18;6.40;;;3.97;;
21905;SDS011;11117;48.644;9.006;2024-01-16T14:31:44;8.53;;;4.37;;
21905;SDS011;11117;48.644;9.006;2024-01-16T14:34:10;10.17;;;4.93;;
21905;SDS011;11117;48.644;9.006;2024-01-16T14:36:36;10.63;;;4.63;;
21905;SDS011;11117;48.644;9.006;2024-01-16T14:39:01;25.70;;;12.30;;
21905;SDS011;11117;48.644;9.006;2024-01-16T14:41:27;13.33;;;6.50;;
21905;SDS011;11117;48.644;9.006;2024-01-16T14:43:54;11.63;;;5.90;;
21905;SDS011;11117;48.644;9.006;2024-01-16T14:46:20;14.33;;;5.10;;
21905;SDS011;11117;48.644;9.006;2024-01-16T14:48:45;11.30;;;4.87;;